sensor_id;sensor_type;location;lat;lon;timestamp;P1;durP1;ratioP1;P2;durP2;ratioP2
20880;SDS011;10600;53.096;8.802;2022-10-12T00:00:56;18.25;;;5.95;;
20880;SDS011;10600;53.096;8.802;2022-10-12T00:01:56;22.52;;;6.30;;
20880;SDS011;10600;53.096;8.802;2022-10-12T00:02:57;24.98;;;6.68;;
20880;SDS011;10600;53.096;8.802;2022-10-12T00:03:58;15.50;;;6.05;;
20880;SDS011;10600;53.096;8.802;2022-10-12T00:04:58;19.30;;;7.30;;
20880;SDS011;10600;53.096;8.802;2022-10-12T00:06:00;23.65;;;5.95;;
20880;SDS011;10600;53.096;8.802;2022-10-12T00:07:07;20.02;;;6.80;;
20880;SDS011;10600;53.096;8.802;2022-10-12T00:08:07;14.20;;;5.47;;
20880;SDS011;10600;53.096;8.802;2022-10-12T00:09:08;20.60;;;7.10;;
20880;SDS011;10600;53.096;8.802;2022-10-12T00:10:09;20.67;;;5.72;;
20880;SDS011;10600;53.096;8.802;2022-10-12T00:11:10;20.80;;;6.97;;
20880;SDS011;10600;53.096;8.802;2022-10-12T00:12:13;24.15;;;6.22;;
20880;SDS011;10600;53.096;8.802;2022-10-12T00:13:14;18.60;;;6.55;;
20880;SDS011;10600;53.096;8.802;2022-10-12T00:14:14;26.90;;;7.22;;
20880;SDS011;10600;53.096;8.802;2022-10-12T00:15:15;21.55;;;6.43;;
20880;SDS011;10600;53.096;8.802;2022-10-12T00:16:16;21.98;;;6.20;;
20880;SDS011;10600;53.096;8.802;2022-10-12T00:17:20;19.67;;;6.80;;
20880;SDS011;10600;53.096;8.802;2022-10-12T00:18:20;18.48;;;6.82;;
20880;SDS011;10600;53.096;8.802;2022-10-12T00:19:21;22.50;;;6.43;;
20880;SDS011;10600;53.096;8.802;2022-10-12T00:20:22;17.48;;;5.85;;
20880;SDS011;10600;53.096;8.802;2022-10-12T00:21:23;18.52;;;7.38;;
20880;SDS011;10600;53.096;8.802;2022-10-12T00:22:24;17.20;;;6.45;;
20880;SDS011;10600;53.096;8.802;2022-10-12T00:23:25;22.50;;;6.38;;
20880;SDS011;10600;53.096;8.802;2022-10-12T00:24:26;23.90;;;7.38;;
20880;SDS011;10600;53.096;8.802;2022-10-12T00:25:26;18.65;;;5.53;;
20880;SDS011;10600;53.096;8.802;2022-10-12T00:26:27;21.30;;;6.28;;
20880;SDS011;10600;53.096;8.802;2022-10-12T00:27:28;19.67;;;7.35;;
20880;SDS011;10600;53.096;8.802;2022-10-12T00:28:29;14.43;;;5.93;;
20880;SDS011;10600;53.096;8.802;2022-10-12T00:29:30;18.15;;;6.18;;
20880;SDS011;10600;53.096;8.802;2022-10-12T00:30:31;20.20;;;6.65;;
20880;SDS011;10600;53.096;8.802;2022-10-12T00:31:32;24.60;;;6.70;;
20880;SDS011;10600;53.096;8.802;2022-10-12T00:32:32;21.10;;;6.30;;
20880;SDS011;10600;53.096;8.802;2022-10-12T00:33:33;20.75;;;7.40;;
20880;SDS011;10600;53.096;8.802;2022-10-12T00:34:34;20.70;;;6.85;;
20880;SDS011;10600;53.096;8.802;2022-10-12T00:35:35;19.25;;;6.55;;
20880;SDS011;10600;53.096;8.802;2022-10-12T00:36:35;21.35;;;6.13;;
20880;SDS011;10600;53.096;8.802;2022-10-12T00:37:36;21.30;;;7.32;;
20880;SDS011;10600;53.096;8.802;2022-10-12T00:38:37;29.80;;;7.45;;
20880;SDS011;10600;53.096;8.802;2022-10-12T00:39:37;22.65;;;7.20;;
20880;SDS011;10600;53.096;8.802;2022-10-12T00:40:38;18.38;;;7.32;;
20880;SDS011;10600;53.096;8.802;2022-10-12T00:41:40;17.65;;;7.10;;
20880;SDS011;10600;53.096;8.802;2022-10-12T00:42:42;23.88;;;7.90;;
20880;SDS011;10600;53.096;8.802;2022-10-12T00:43:43;20.65;;;7.60;;
20880;SDS011;10600;53.096;8.802;2022-10-12T00:44:46;24.33;;;8.15;;
20880;SDS011;10600;53.096;8.802;2022-10-12T00:45:48;26.50;;;8.23;;
20880;SDS011;10600;53.096;8.802;2022-10-12T00:46:48;20.45;;;7.72;;
20880;SDS011;10600;53.096;8.802;2022-10-12T00:47:51;25.55;;;8.15;;
20880;SDS011;10600;53.096;8.802;2022-10-12T00:49:08;22.70;;;8.10;;
20880;SDS011;10600;53.096;8.802;2022-10-12T00:50:14;20.27;;;8.77;;
20880;SDS011;10600;53.096;8.802;2022-10-12T00:51:34;25.70;;;7.57;;
20880;SDS011;10600;53.096;8.802;2022-10-12T00:52:40;19.67;;;7.68;;
20880;SDS011;10600;53.096;8.802;2022-10-12T00:53:53;20.42;;;7.95;;
20880;SDS011;10600;53.096;8.802;2022-10-12T00:55:03;23.33;;;7.93;;
20880;SDS011;10600;53.096;8.802;2022-10-12T00:56:05;20.80;;;7.57;;
20880;SDS011;10600;53.096;8.802;2022-10-12T00:57:12;20.65;;;8.20;;
20880;SDS011;10600;53.096;8.802;2022-10-12T00:58:15;23.80;;;7.80;;
20880;SDS011;10600;53.096;8.802;2022-10-12T00:59:17;26.55;;;8.45;;
20880;SDS011;10600;53.096;8.802;2022-10-12T01:00:22;24.55;;;8.77;;
20880;SDS011;10600;53.096;8.802;2022-10-12T01:01:23;21.15;;;8.38;;
20880;SDS011;10600;53.096;8.802;2022-10-12T01:02:24;24.25;;;8.35;;
20880;SDS011;10600;53.096;8.802;2022-10-12T01:03:26;20.67;;;8.20;;
20880;SDS011;10600;53.096;8.802;2022-10-12T01:04:27;25.08;;;8.73;;
20880;SDS011;10600;53.096;8.802;2022-10-12T01:05:30;26.55;;;8.48;;
20880;SDS011;10600;53.096;8.802;2022-10-12T01:06:32;20.08;;;9.23;;
20880;SDS011;10600;53.096;8.802;2022-10-12T01:07:34;27.45;;;8.60;;
20880;SDS011;10600;53.096;8.802;2022-10-12T01:08:35;21.92;;;9.00;;
20880;SDS011;10600;53.096;8.802;2022-10-12T01:09:37;21.40;;;8.90;;
20880;SDS011;10600;53.096;8.802;2022-10-12T01:10:37;26.20;;;8.95;;
20880;SDS011;10600;53.096;8.802;2022-10-12T01:11:38;26.33;;;8.65;;
20880;SDS011;10600;53.096;8.802;2022-10-12T01:12:40;22.25;;;8.27;;
20880;SDS011;10600;53.096;8.802;2022-10-12T01:13:42;24.25;;;8.63;;
20880;SDS011;10600;53.096;8.802;2022-10-12T01:14:43;18.50;;;8.18;;
20880;SDS011;10600;53.096;8.802;2022-10-12T01:15:50;25.10;;;8.73;;
20880;SDS011;10600;53.096;8.802;2022-10-12T01:17:00;23.52;;;9.15;;
20880;SDS011;10600;53.096;8.802;2022-10-12T01:21:03;18.55;;;8.05;;
20880;SDS011;10600;53.096;8.802;2022-10-12T01:22:18;21.33;;;8.40;;
20880;SDS011;10600;53.096;8.802;2022-10-12T01:23:28;23.73;;;8.85;;
20880;SDS011;10600;53.096;8.802;2022-10-12T01:24:52;25.02;;;8.52;;
20880;SDS011;10600;53.096;8.802;2022-10-12T01:26:05;29.05;;;9.15;;
20880;SDS011;10600;53.096;8.802;2022-10-12T01:30:35;25.48;;;8.98;;
20880;SDS011;10600;53.096;8.802;2022-10-12T01:31:50;29.08;;;9.52;;
20880;SDS011;10600;53.096;8.802;2022-10-12T01:33:01;27.88;;;9.07;;
20880;SDS011;10600;53.096;8.802;2022-10-12T01:35:59;25.95;;;9.13;;
20880;SDS011;10600;53.096;8.802;2022-10-12T01:37:20;25.08;;;8.38;;
20880;SDS011;10600;53.096;8.802;2022-10-12T01:38:33;26.73;;;9.30;;
20880;SDS011;10600;53.096;8.802;2022-10-12T01:39:52;21.05;;;8.85;;
20880;SDS011;10600;53.096;8.802;2022-10-12T01:40:59;36.20;;;9.07;;
20880;SDS011;10600;53.096;8.802;2022-10-12T01:42:22;25.17;;;9.18;;
20880;SDS011;10600;53.096;8.802;2022-10-12T01:43:38;27.17;;;9.07;;
20880;SDS011;10600;53.096;8.802;2022-10-12T01:44:40;19.42;;;9.25;;
20880;SDS011;10600;53.096;8.802;2022-10-12T01:45:41;22.35;;;9.40;;
20880;SDS011;10600;53.096;8.802;2022-10-12T01:46:41;31.17;;;9.45;;
20880;SDS011;10600;53.096;8.802;2022-10-12T01:47:44;16.08;;;8.88;;
20880;SDS011;10600;53.096;8.802;2022-10-12T01:48:48;24.95;;;9.57;;
20880;SDS011;10600;53.096;8.802;2022-10-12T01:49:52;23.50;;;9.38;;
20880;SDS011;10600;53.096;8.802;2022-10-12T01:50:53;24.25;;;9.50;;
20880;SDS011;10600;53.096;8.802;2022-10-12T01:52:15;19.30;;;9.18;;
20880;SDS011;10600;53.096;8.802;2022-10-12T01:53:31;21.08;;;9.73;;
20880;SDS011;10600;53.096;8.802;2022-10-12T01:56:17;28.02;;;9.57;;
20880;SDS011;10600;53.096;8.802;2022-10-12T01:59:14;23.98;;;10.07;;
20880;SDS011;10600;53.096;8.802;2022-10-12T02:00:17;28.88;;;9.68;;
20880;SDS011;10600;53.096;8.802;2022-10-12T02:01:20;26.83;;;11.55;;
20880;SDS011;10600;53.096;8.802;2022-10-12T02:04:06;23.75;;;10.25;;
20880;SDS011;10600;53.096;8.802;2022-10-12T02:06:19;26.33;;;10.27;;
20880;SDS011;10600;53.096;8.802;2022-10-12T02:07:23;25.55;;;11.13;;
20880;SDS011;10600;53.096;8.802;2022-10-12T02:08:40;29.33;;;10.45;;
20880;SDS011;10600;53.096;8.802;2022-10-12T02:10:04;31.83;;;10.98;;
20880;SDS011;10600;53.096;8.802;2022-10-12T02:11:10;25.35;;;11.10;;
20880;SDS011;10600;53.096;8.802;2022-10-12T02:12:16;27.58;;;12.02;;
20880;SDS011;10600;53.096;8.802;2022-10-12T02:13:20;26.23;;;10.00;;
20880;SDS011;10600;53.096;8.802;2022-10-12T02:14:26;26.90;;;11.18;;
20880;SDS011;10600;53.096;8.802;2022-10-12T02:15:32;21.48;;;10.07;;
20880;SDS011;10600;53.096;8.802;2022-10-12T02:16:38;25.98;;;9.75;;
20880;SDS011;10600;53.096;8.802;2022-10-12T02:17:43;26.73;;;10.20;;
20880;SDS011;10600;53.096;8.802;2022-10-12T02:18:48;23.67;;;10.43;;
20880;SDS011;10600;53.096;8.802;2022-10-12T02:19:57;29.08;;;11.18;;
20880;SDS011;10600;53.096;8.802;2022-10-12T02:20:59;32.35;;;13.23;;
20880;SDS011;10600;53.096;8.802;2022-10-12T02:22:01;30.30;;;11.30;;
20880;SDS011;10600;53.096;8.802;2022-10-12T02:23:05;20.45;;;10.52;;
20880;SDS011;10600;53.096;8.802;2022-10-12T02:24:07;31.42;;;11.75;;
20880;SDS011;10600;53.096;8.802;2022-10-12T02:25:11;25.98;;;10.50;;
20880;SDS011;10600;53.096;8.802;2022-10-12T02:26:14;26.45;;;10.50;;
20880;SDS011;10600;53.096;8.802;2022-10-12T02:27:16;25.20;;;11.05;;
20880;SDS011;10600;53.096;8.802;2022-10-12T02:28:19;28.80;;;10.60;;
20880;SDS011;10600;53.096;8.802;2022-10-12T02:29:34;23.77;;;11.80;;
20880;SDS011;10600;53.096;8.802;2022-10-12T02:30:42;20.48;;;10.82;;
20880;SDS011;10600;53.096;8.802;2022-10-12T02:33:02;29.65;;;10.90;;
20880;SDS011;10600;53.096;8.802;2022-10-12T02:34:11;28.73;;;11.43;;
20880;SDS011;10600;53.096;8.802;2022-10-12T02:35:31;24.88;;;10.82;;
20880;SDS011;10600;53.096;8.802;2022-10-12T02:37:50;26.98;;;11.23;;
20880;SDS011;10600;53.096;8.802;2022-10-12T02:38:59;27.10;;;10.48;;
20880;SDS011;10600;53.096;8.802;2022-10-12T02:41:31;28.80;;;11.50;;
20880;SDS011;10600;53.096;8.802;2022-10-12T02:42:37;21.73;;;10.73;;
20880;SDS011;10600;53.096;8.802;2022-10-12T02:43:42;26.25;;;11.02;;
20880;SDS011;10600;53.096;8.802;2022-10-12T02:44:46;23.25;;;11.23;;
20880;SDS011;10600;53.096;8.802;2022-10-12T02:45:47;34.83;;;11.85;;
20880;SDS011;10600;53.096;8.802;2022-10-12T02:46:49;25.75;;;11.52;;
20880;SDS011;10600;53.096;8.802;2022-10-12T02:47:52;28.25;;;11.85;;
20880;SDS011;10600;53.096;8.802;2022-10-12T02:48:55;24.63;;;11.15;;
20880;SDS011;10600;53.096;8.802;2022-10-12T02:49:59;26.38;;;11.93;;
20880;SDS011;10600;53.096;8.802;2022-10-12T02:51:01;31.75;;;12.30;;
20880;SDS011;10600;53.096;8.802;2022-10-12T02:52:03;28.13;;;11.43;;
20880;SDS011;10600;53.096;8.802;2022-10-12T02:53:05;24.63;;;10.27;;
20880;SDS011;10600;53.096;8.802;2022-10-12T02:54:07;29.33;;;10.93;;
20880;SDS011;10600;53.096;8.802;2022-10-12T02:55:07;23.77;;;10.38;;
20880;SDS011;10600;53.096;8.802;2022-10-12T02:56:10;28.13;;;11.07;;
20880;SDS011;10600;53.096;8.802;2022-10-12T02:57:13;26.48;;;11.00;;
20880;SDS011;10600;53.096;8.802;2022-10-12T02:58:13;28.88;;;11.95;;
20880;SDS011;10600;53.096;8.802;2022-10-12T02:59:15;25.42;;;11.27;;
20880;SDS011;10600;53.096;8.802;2022-10-12T03:00:17;26.73;;;11.43;;
20880;SDS011;10600;53.096;8.802;2022-10-12T03:01:17;33.70;;;11.20;;
20880;SDS011;10600;53.096;8.802;2022-10-12T03:02:18;38.92;;;12.63;;
20880;SDS011;10600;53.096;8.802;2022-10-12T03:03:19;29.02;;;13.02;;
20880;SDS011;10600;53.096;8.802;2022-10-12T03:04:19;28.02;;;12.02;;
20880;SDS011;10600;53.096;8.802;2022-10-12T03:05:20;32.35;;;12.15;;
20880;SDS011;10600;53.096;8.802;2022-10-12T03:06:21;29.17;;;11.85;;
20880;SDS011;10600;53.096;8.802;2022-10-12T03:07:22;32.30;;;12.25;;
20880;SDS011;10600;53.096;8.802;2022-10-12T03:08:23;25.88;;;12.38;;
20880;SDS011;10600;53.096;8.802;2022-10-12T03:09:24;29.10;;;12.40;;
20880;SDS011;10600;53.096;8.802;2022-10-12T03:10:24;24.83;;;11.52;;
20880;SDS011;10600;53.096;8.802;2022-10-12T03:11:25;30.38;;;12.65;;
20880;SDS011;10600;53.096;8.802;2022-10-12T03:12:26;30.45;;;12.80;;
20880;SDS011;10600;53.096;8.802;2022-10-12T03:13:26;32.28;;;13.02;;
20880;SDS011;10600;53.096;8.802;2022-10-12T03:14:27;27.88;;;13.60;;
20880;SDS011;10600;53.096;8.802;2022-10-12T03:15:28;30.67;;;12.60;;
20880;SDS011;10600;53.096;8.802;2022-10-12T03:16:29;29.05;;;12.23;;
20880;SDS011;10600;53.096;8.802;2022-10-12T03:17:30;31.75;;;12.35;;
20880;SDS011;10600;53.096;8.802;2022-10-12T03:18:30;38.63;;;13.35;;
20880;SDS011;10600;53.096;8.802;2022-10-12T03:19:31;39.60;;;15.13;;
20880;SDS011;10600;53.096;8.802;2022-10-12T03:20:32;31.65;;;13.70;;
20880;SDS011;10600;53.096;8.802;2022-10-12T03:21:33;34.63;;;14.20;;
20880;SDS011;10600;53.096;8.802;2022-10-12T03:22:33;35.58;;;14.35;;
20880;SDS011;10600;53.096;8.802;2022-10-12T03:23:34;40.60;;;13.55;;
20880;SDS011;10600;53.096;8.802;2022-10-12T03:24:35;35.75;;;14.43;;
20880;SDS011;10600;53.096;8.802;2022-10-12T03:25:35;29.88;;;12.70;;
20880;SDS011;10600;53.096;8.802;2022-10-12T03:26:36;29.70;;;12.27;;
20880;SDS011;10600;53.096;8.802;2022-10-12T03:27:37;25.88;;;11.65;;
20880;SDS011;10600;53.096;8.802;2022-10-12T03:28:37;31.88;;;12.70;;
20880;SDS011;10600;53.096;8.802;2022-10-12T03:29:38;29.00;;;12.52;;
20880;SDS011;10600;53.096;8.802;2022-10-12T03:30:38;42.42;;;14.48;;
20880;SDS011;10600;53.096;8.802;2022-10-12T03:31:39;34.60;;;14.50;;
20880;SDS011;10600;53.096;8.802;2022-10-12T03:32:40;32.75;;;13.20;;
20880;SDS011;10600;53.096;8.802;2022-10-12T03:33:40;32.90;;;13.75;;
20880;SDS011;10600;53.096;8.802;2022-10-12T03:34:41;36.65;;;14.05;;
20880;SDS011;10600;53.096;8.802;2022-10-12T03:35:42;33.38;;;14.65;;
20880;SDS011;10600;53.096;8.802;2022-10-12T03:36:44;37.40;;;13.75;;
20880;SDS011;10600;53.096;8.802;2022-10-12T03:37:44;31.45;;;12.05;;
20880;SDS011;10600;53.096;8.802;2022-10-12T03:38:45;39.65;;;15.80;;
20880;SDS011;10600;53.096;8.802;2022-10-12T03:39:46;32.30;;;12.80;;
20880;SDS011;10600;53.096;8.802;2022-10-12T03:40:46;31.02;;;13.43;;
20880;SDS011;10600;53.096;8.802;2022-10-12T03:41:47;35.42;;;14.27;;
20880;SDS011;10600;53.096;8.802;2022-10-12T03:42:48;27.80;;;13.90;;
20880;SDS011;10600;53.096;8.802;2022-10-12T03:43:48;31.23;;;13.90;;
20880;SDS011;10600;53.096;8.802;2022-10-12T03:44:49;28.50;;;12.60;;
20880;SDS011;10600;53.096;8.802;2022-10-12T03:45:50;28.70;;;12.98;;
20880;SDS011;10600;53.096;8.802;2022-10-12T03:46:51;27.92;;;12.65;;
20880;SDS011;10600;53.096;8.802;2022-10-12T03:47:52;33.40;;;12.73;;
20880;SDS011;10600;53.096;8.802;2022-10-12T03:48:52;27.23;;;12.82;;
20880;SDS011;10600;53.096;8.802;2022-10-12T03:49:53;23.92;;;11.55;;
20880;SDS011;10600;53.096;8.802;2022-10-12T03:50:54;30.05;;;12.65;;
20880;SDS011;10600;53.096;8.802;2022-10-12T03:51:54;26.67;;;12.15;;
20880;SDS011;10600;53.096;8.802;2022-10-12T03:52:55;30.85;;;11.88;;
20880;SDS011;10600;53.096;8.802;2022-10-12T03:53:55;26.60;;;12.85;;
20880;SDS011;10600;53.096;8.802;2022-10-12T03:54:56;23.60;;;11.85;;
20880;SDS011;10600;53.096;8.802;2022-10-12T03:55:57;28.83;;;13.02;;
20880;SDS011;10600;53.096;8.802;2022-10-12T03:56:58;30.90;;;12.25;;
20880;SDS011;10600;53.096;8.802;2022-10-12T03:57:58;24.75;;;12.23;;
20880;SDS011;10600;53.096;8.802;2022-10-12T03:58:59;29.73;;;12.20;;
20880;SDS011;10600;53.096;8.802;2022-10-12T04:00:00;28.45;;;11.93;;
20880;SDS011;10600;53.096;8.802;2022-10-12T04:01:01;30.17;;;13.43;;
20880;SDS011;10600;53.096;8.802;2022-10-12T04:02:01;27.48;;;12.80;;
20880;SDS011;10600;53.096;8.802;2022-10-12T04:03:02;30.77;;;13.38;;
20880;SDS011;10600;53.096;8.802;2022-10-12T04:04:03;30.70;;;12.95;;
20880;SDS011;10600;53.096;8.802;2022-10-12T04:05:04;32.38;;;14.73;;
20880;SDS011;10600;53.096;8.802;2022-10-12T04:06:05;34.35;;;15.45;;
20880;SDS011;10600;53.096;8.802;2022-10-12T04:07:06;36.75;;;15.77;;
20880;SDS011;10600;53.096;8.802;2022-10-12T04:08:07;27.55;;;13.85;;
20880;SDS011;10600;53.096;8.802;2022-10-12T04:09:07;26.80;;;14.75;;
20880;SDS011;10600;53.096;8.802;2022-10-12T04:10:08;42.95;;;16.48;;
20880;SDS011;10600;53.096;8.802;2022-10-12T04:11:09;41.35;;;16.75;;
20880;SDS011;10600;53.096;8.802;2022-10-12T04:12:10;32.17;;;16.55;;
20880;SDS011;10600;53.096;8.802;2022-10-12T04:13:10;37.60;;;17.85;;
20880;SDS011;10600;53.096;8.802;2022-10-12T04:14:11;37.47;;;18.17;;
20880;SDS011;10600;53.096;8.802;2022-10-12T04:15:11;43.72;;;19.60;;
20880;SDS011;10600;53.096;8.802;2022-10-12T04:16:13;40.25;;;19.02;;
20880;SDS011;10600;53.096;8.802;2022-10-12T04:17:16;37.35;;;18.10;;
20880;SDS011;10600;53.096;8.802;2022-10-12T04:18:17;38.15;;;20.50;;
20880;SDS011;10600;53.096;8.802;2022-10-12T04:19:18;41.78;;;19.90;;
20880;SDS011;10600;53.096;8.802;2022-10-12T04:20:18;42.13;;;22.05;;
20880;SDS011;10600;53.096;8.802;2022-10-12T04:21:19;41.92;;;20.08;;
20880;SDS011;10600;53.096;8.802;2022-10-12T04:22:22;43.70;;;19.52;;
20880;SDS011;10600;53.096;8.802;2022-10-12T04:23:25;41.97;;;19.77;;
20880;SDS011;10600;53.096;8.802;2022-10-12T04:24:26;34.28;;;19.00;;
20880;SDS011;10600;53.096;8.802;2022-10-12T04:25:26;35.65;;;18.70;;
20880;SDS011;10600;53.096;8.802;2022-10-12T04:26:27;41.47;;;19.55;;
20880;SDS011;10600;53.096;8.802;2022-10-12T04:27:28;47.90;;;19.00;;
20880;SDS011;10600;53.096;8.802;2022-10-12T04:28:28;33.00;;;17.73;;
20880;SDS011;10600;53.096;8.802;2022-10-12T04:29:29;36.85;;;17.95;;
20880;SDS011;10600;53.096;8.802;2022-10-12T04:30:30;38.08;;;18.92;;
20880;SDS011;10600;53.096;8.802;2022-10-12T04:31:32;44.80;;;18.67;;
20880;SDS011;10600;53.096;8.802;2022-10-12T04:32:32;37.63;;;17.88;;
20880;SDS011;10600;53.096;8.802;2022-10-12T04:33:33;34.55;;;17.83;;
20880;SDS011;10600;53.096;8.802;2022-10-12T04:34:34;34.38;;;17.83;;
20880;SDS011;10600;53.096;8.802;2022-10-12T04:35:35;29.55;;;17.40;;
20880;SDS011;10600;53.096;8.802;2022-10-12T04:36:36;45.15;;;18.50;;
20880;SDS011;10600;53.096;8.802;2022-10-12T04:37:37;32.08;;;17.67;;
20880;SDS011;10600;53.096;8.802;2022-10-12T04:38:39;34.67;;;17.38;;
20880;SDS011;10600;53.096;8.802;2022-10-12T04:39:39;34.92;;;17.40;;
20880;SDS011;10600;53.096;8.802;2022-10-12T04:40:40;31.65;;;17.08;;
20880;SDS011;10600;53.096;8.802;2022-10-12T04:41:44;39.25;;;18.83;;
20880;SDS011;10600;53.096;8.802;2022-10-12T04:42:45;40.85;;;18.70;;
20880;SDS011;10600;53.096;8.802;2022-10-12T04:43:45;37.10;;;18.80;;
20880;SDS011;10600;53.096;8.802;2022-10-12T04:44:46;38.58;;;19.77;;
20880;SDS011;10600;53.096;8.802;2022-10-12T04:45:57;36.70;;;18.90;;
20880;SDS011;10600;53.096;8.802;2022-10-12T04:47:01;41.15;;;21.05;;
20880;SDS011;10600;53.096;8.802;2022-10-12T04:48:02;37.65;;;18.73;;
20880;SDS011;10600;53.096;8.802;2022-10-12T04:49:03;44.67;;;19.10;;
20880;SDS011;10600;53.096;8.802;2022-10-12T04:50:04;32.50;;;19.67;;
20880;SDS011;10600;53.096;8.802;2022-10-12T04:51:05;39.50;;;20.42;;
20880;SDS011;10600;53.096;8.802;2022-10-12T04:52:06;35.60;;;19.80;;
20880;SDS011;10600;53.096;8.802;2022-10-12T04:53:06;39.40;;;19.02;;
20880;SDS011;10600;53.096;8.802;2022-10-12T04:54:08;37.75;;;19.63;;
20880;SDS011;10600;53.096;8.802;2022-10-12T04:55:09;39.55;;;20.63;;
20880;SDS011;10600;53.096;8.802;2022-10-12T04:56:10;44.03;;;21.02;;
20880;SDS011;10600;53.096;8.802;2022-10-12T04:57:11;42.75;;;20.33;;
20880;SDS011;10600;53.096;8.802;2022-10-12T04:58:11;47.50;;;20.85;;
20880;SDS011;10600;53.096;8.802;2022-10-12T04:59:12;40.00;;;20.20;;
20880;SDS011;10600;53.096;8.802;2022-10-12T05:00:13;39.65;;;20.50;;
20880;SDS011;10600;53.096;8.802;2022-10-12T05:01:14;46.65;;;22.30;;
20880;SDS011;10600;53.096;8.802;2022-10-12T05:02:15;40.28;;;21.58;;
20880;SDS011;10600;53.096;8.802;2022-10-12T05:03:16;38.35;;;22.10;;
20880;SDS011;10600;53.096;8.802;2022-10-12T05:04:16;39.88;;;22.92;;
20880;SDS011;10600;53.096;8.802;2022-10-12T05:05:17;44.92;;;21.92;;
20880;SDS011;10600;53.096;8.802;2022-10-12T05:06:18;42.85;;;22.38;;
20880;SDS011;10600;53.096;8.802;2022-10-12T05:07:18;38.58;;;20.75;;
20880;SDS011;10600;53.096;8.802;2022-10-12T05:08:19;44.28;;;22.38;;
20880;SDS011;10600;53.096;8.802;2022-10-12T05:09:20;44.03;;;23.75;;
20880;SDS011;10600;53.096;8.802;2022-10-12T05:10:21;41.67;;;21.95;;
20880;SDS011;10600;53.096;8.802;2022-10-12T05:11:21;46.63;;;22.70;;
20880;SDS011;10600;53.096;8.802;2022-10-12T05:12:22;41.95;;;22.23;;
20880;SDS011;10600;53.096;8.802;2022-10-12T05:13:23;47.90;;;24.08;;
20880;SDS011;10600;53.096;8.802;2022-10-12T05:14:25;44.47;;;22.42;;
20880;SDS011;10600;53.096;8.802;2022-10-12T05:15:26;42.63;;;23.33;;
20880;SDS011;10600;53.096;8.802;2022-10-12T05:16:27;37.65;;;23.00;;
20880;SDS011;10600;53.096;8.802;2022-10-12T05:17:27;45.35;;;23.90;;
20880;SDS011;10600;53.096;8.802;2022-10-12T05:18:28;41.33;;;23.58;;
20880;SDS011;10600;53.096;8.802;2022-10-12T05:19:29;45.90;;;22.88;;
20880;SDS011;10600;53.096;8.802;2022-10-12T05:20:29;43.15;;;22.75;;
20880;SDS011;10600;53.096;8.802;2022-10-12T05:21:30;40.22;;;22.73;;
20880;SDS011;10600;53.096;8.802;2022-10-12T05:22:31;45.15;;;22.88;;
20880;SDS011;10600;53.096;8.802;2022-10-12T05:23:31;43.33;;;23.45;;
20880;SDS011;10600;53.096;8.802;2022-10-12T05:24:32;47.78;;;24.52;;
20880;SDS011;10600;53.096;8.802;2022-10-12T05:25:33;47.42;;;24.98;;
20880;SDS011;10600;53.096;8.802;2022-10-12T05:26:34;40.35;;;23.33;;
20880;SDS011;10600;53.096;8.802;2022-10-12T05:27:35;44.53;;;23.42;;
20880;SDS011;10600;53.096;8.802;2022-10-12T05:28:35;44.53;;;23.15;;
20880;SDS011;10600;53.096;8.802;2022-10-12T05:29:36;48.13;;;23.35;;
20880;SDS011;10600;53.096;8.802;2022-10-12T05:30:37;48.53;;;25.90;;
20880;SDS011;10600;53.096;8.802;2022-10-12T05:31:38;47.75;;;24.17;;
20880;SDS011;10600;53.096;8.802;2022-10-12T05:32:38;47.83;;;25.58;;
20880;SDS011;10600;53.096;8.802;2022-10-12T05:33:39;46.60;;;23.83;;
20880;SDS011;10600;53.096;8.802;2022-10-12T05:34:40;47.08;;;24.08;;
20880;SDS011;10600;53.096;8.802;2022-10-12T05:35:41;52.25;;;26.95;;
20880;SDS011;10600;53.096;8.802;2022-10-12T05:36:41;52.70;;;27.23;;
20880;SDS011;10600;53.096;8.802;2022-10-12T05:37:42;44.95;;;26.45;;
20880;SDS011;10600;53.096;8.802;2022-10-12T05:38:43;51.13;;;26.20;;
20880;SDS011;10600;53.096;8.802;2022-10-12T05:39:43;55.03;;;27.13;;
20880;SDS011;10600;53.096;8.802;2022-10-12T05:40:44;53.53;;;27.15;;
20880;SDS011;10600;53.096;8.802;2022-10-12T05:41:45;47.00;;;26.45;;
20880;SDS011;10600;53.096;8.802;2022-10-12T05:42:46;49.83;;;26.10;;
20880;SDS011;10600;53.096;8.802;2022-10-12T05:43:47;52.67;;;25.77;;
20880;SDS011;10600;53.096;8.802;2022-10-12T05:44:48;44.85;;;25.95;;
20880;SDS011;10600;53.096;8.802;2022-10-12T05:45:48;49.05;;;25.73;;
20880;SDS011;10600;53.096;8.802;2022-10-12T05:46:49;40.35;;;25.63;;
20880;SDS011;10600;53.096;8.802;2022-10-12T05:47:49;48.25;;;25.45;;
20880;SDS011;10600;53.096;8.802;2022-10-12T05:48:50;42.45;;;25.27;;
20880;SDS011;10600;53.096;8.802;2022-10-12T05:49:51;51.95;;;26.63;;
20880;SDS011;10600;53.096;8.802;2022-10-12T05:50:52;49.22;;;24.60;;
20880;SDS011;10600;53.096;8.802;2022-10-12T05:51:53;54.78;;;25.98;;
20880;SDS011;10600;53.096;8.802;2022-10-12T05:52:54;48.83;;;25.65;;
20880;SDS011;10600;53.096;8.802;2022-10-12T05:53:54;52.63;;;26.35;;
20880;SDS011;10600;53.096;8.802;2022-10-12T05:54:55;49.78;;;26.88;;
20880;SDS011;10600;53.096;8.802;2022-10-12T05:55:56;46.53;;;25.83;;
20880;SDS011;10600;53.096;8.802;2022-10-12T05:56:58;53.22;;;28.33;;
20880;SDS011;10600;53.096;8.802;2022-10-12T05:57:59;56.58;;;28.02;;
20880;SDS011;10600;53.096;8.802;2022-10-12T05:58:59;49.92;;;28.27;;
20880;SDS011;10600;53.096;8.802;2022-10-12T06:00:00;52.83;;;27.23;;
20880;SDS011;10600;53.096;8.802;2022-10-12T06:01:05;52.38;;;26.60;;
20880;SDS011;10600;53.096;8.802;2022-10-12T06:02:14;50.83;;;27.10;;
20880;SDS011;10600;53.096;8.802;2022-10-12T06:03:16;51.13;;;25.73;;
20880;SDS011;10600;53.096;8.802;2022-10-12T06:04:17;56.28;;;25.13;;
20880;SDS011;10600;53.096;8.802;2022-10-12T06:05:17;49.50;;;25.88;;
20880;SDS011;10600;53.096;8.802;2022-10-12T06:06:18;43.33;;;25.27;;
20880;SDS011;10600;53.096;8.802;2022-10-12T06:07:19;48.65;;;24.40;;
20880;SDS011;10600;53.096;8.802;2022-10-12T06:08:20;42.58;;;23.77;;
20880;SDS011;10600;53.096;8.802;2022-10-12T06:09:21;50.70;;;27.02;;
20880;SDS011;10600;53.096;8.802;2022-10-12T06:10:21;48.35;;;25.08;;
20880;SDS011;10600;53.096;8.802;2022-10-12T06:11:22;41.85;;;24.17;;
20880;SDS011;10600;53.096;8.802;2022-10-12T06:12:23;66.78;;;40.17;;
20880;SDS011;10600;53.096;8.802;2022-10-12T06:13:23;47.15;;;26.50;;
20880;SDS011;10600;53.096;8.802;2022-10-12T06:14:25;46.95;;;27.70;;
20880;SDS011;10600;53.096;8.802;2022-10-12T06:15:25;46.60;;;26.38;;
20880;SDS011;10600;53.096;8.802;2022-10-12T06:16:26;42.38;;;24.00;;
20880;SDS011;10600;53.096;8.802;2022-10-12T06:17:26;45.30;;;23.70;;
20880;SDS011;10600;53.096;8.802;2022-10-12T06:18:27;41.33;;;24.05;;
20880;SDS011;10600;53.096;8.802;2022-10-12T06:19:28;47.72;;;24.13;;
20880;SDS011;10600;53.096;8.802;2022-10-12T06:20:28;48.80;;;25.67;;
20880;SDS011;10600;53.096;8.802;2022-10-12T06:21:29;42.13;;;25.05;;
20880;SDS011;10600;53.096;8.802;2022-10-12T06:22:30;48.67;;;23.25;;
20880;SDS011;10600;53.096;8.802;2022-10-12T06:23:30;47.55;;;24.55;;
20880;SDS011;10600;53.096;8.802;2022-10-12T06:24:31;48.15;;;23.40;;
20880;SDS011;10600;53.096;8.802;2022-10-12T06:25:32;42.83;;;22.50;;
20880;SDS011;10600;53.096;8.802;2022-10-12T06:26:32;47.40;;;23.95;;